createdAt,value
2022-09-15T00:00:29.132Z,19.64
2022-09-15T00:02:56.167Z,19.62
2022-09-15T00:05:23.069Z,19.63
2022-09-15T00:07:49.605Z,19.62
2022-09-15T00:10:16.297Z,19.60
2022-09-15T00:12:43.029Z,19.59
2022-09-15T00:15:13.381Z,19.61
2022-09-15T00:17:40.107Z,19.63
2022-09-15T00:20:07.551Z,19.62
2022-09-15T00:22:34.128Z,19.59
2022-09-15T00:25:00.664Z,19.58
2022-09-15T00:27:27.242Z,19.58
2022-09-15T00:29:53.755Z,19.59
2022-09-15T00:32:20.274Z,19.55
2022-09-15T00:34:46.765Z,19.51
2022-09-15T00:37:13.267Z,19.50
2022-09-15T00:39:39.784Z,19.50
2022-09-15T00:42:06.422Z,19.51
2022-09-15T00:44:35.856Z,19.50
2022-09-15T00:47:18.831Z,19.48
2022-09-15T00:49:48.313Z,19.49
2022-09-15T00:52:29.042Z,19.47
2022-09-15T00:55:02.748Z,19.47
2022-09-15T00:58:14.097Z,19.47
2022-09-15T01:00:49.545Z,19.49
2022-09-15T01:03:16.811Z,19.50
2022-09-15T01:05:48.414Z,19.51
2022-09-15T01:08:22.493Z,19.52
2022-09-15T01:10:49.266Z,19.49
2022-09-15T01:13:15.848Z,19.50
2022-09-15T01:15:48.079Z,19.51
2022-09-15T01:18:37.409Z,19.47
2022-09-15T01:21:43.235Z,19.45
2022-09-15T01:24:47.423Z,19.42
2022-09-15T01:27:42.139Z,19.46
2022-09-15T01:30:15.657Z,19.48
2022-09-15T01:33:13.093Z,19.48
2022-09-15T01:35:55.586Z,19.50
2022-09-15T01:38:40.748Z,19.52
2022-09-15T01:41:26.267Z,19.54
2022-09-15T01:44:10.245Z,19.54
2022-09-15T01:46:42.853Z,19.54
2022-09-15T01:49:12.122Z,19.53
2022-09-15T01:51:40.835Z,19.53
2022-09-15T01:54:08.898Z,19.53
2022-09-15T01:56:37.603Z,19.53
2022-09-15T01:59:04.621Z,19.50
2022-09-15T02:01:43.841Z,19.47
2022-09-15T02:04:18.029Z,19.47
2022-09-15T02:06:56.442Z,19.47
2022-09-15T02:09:32.608Z,19.50
2022-09-15T02:12:12.491Z,19.50
2022-09-15T02:14:48.183Z,19.48
2022-09-15T02:17:19.632Z,19.47
2022-09-15T02:19:51.380Z,19.50
2022-09-15T02:22:28.016Z,19.52
2022-09-15T02:25:03.153Z,19.51
2022-09-15T02:27:34.574Z,19.49
2022-09-15T02:30:09.355Z,19.47
2022-09-15T02:32:40.870Z,19.48
2022-09-15T02:35:09.977Z,19.45
2022-09-15T02:37:38.513Z,19.43
2022-09-15T02:40:06.963Z,19.42
2022-09-15T02:42:34.454Z,19.43
2022-09-15T02:45:02.135Z,19.43
2022-09-15T02:47:28.852Z,19.42
2022-09-15T02:49:55.896Z,19.41
2022-09-15T02:52:22.613Z,19.40
2022-09-15T02:54:50.434Z,19.40
2022-09-15T02:57:16.995Z,19.41
2022-09-15T03:00:02.218Z,19.41
2022-09-15T03:02:28.921Z,19.41
2022-09-15T03:04:55.575Z,19.39
2022-09-15T03:07:22.271Z,19.39
2022-09-15T03:09:48.970Z,19.36
2022-09-15T03:12:16.041Z,19.34
2022-09-15T03:14:43.056Z,19.30
2022-09-15T03:17:09.849Z,19.29
2022-09-15T03:19:36.387Z,19.31
2022-09-15T03:22:03.244Z,19.33
2022-09-15T03:24:29.784Z,19.32
2022-09-15T03:26:56.323Z,19.31
2022-09-15T03:29:23.038Z,19.27
2022-09-15T03:31:49.875Z,19.24
2022-09-15T03:34:16.531Z,19.22
2022-09-15T03:36:43.296Z,19.18
2022-09-15T03:39:12.102Z,19.16
2022-09-15T03:41:38.557Z,19.09
2022-09-15T03:44:05.227Z,19.12
2022-09-15T03:46:31.590Z,19.04
2022-09-15T03:48:58.103Z,19.07
2022-09-15T03:51:25.288Z,19.07
2022-09-15T03:53:51.873Z,19.05
2022-09-15T03:56:27.550Z,18.99
2022-09-15T03:58:54.534Z,18.94
2022-09-15T04:01:21.499Z,18.90
2022-09-15T04:03:51.142Z,18.87
2022-09-15T04:06:20.332Z,18.80
2022-09-15T04:08:47.571Z,18.70
2022-09-15T04:11:14.814Z,18.59
2022-09-15T04:13:42.889Z,18.50
2022-09-15T04:16:12.625Z,18.42
2022-09-15T04:18:39.739Z,18.35
2022-09-15T04:21:10.528Z,18.29
2022-09-15T04:23:37.389Z,18.23
2022-09-15T04:26:07.152Z,18.22
2022-09-15T04:28:36.434Z,18.18
2022-09-15T04:31:15.088Z,18.09
2022-09-15T04:33:42.672Z,18.04
2022-09-15T04:36:15.434Z,17.98
2022-09-15T04:38:42.751Z,17.94
2022-09-15T04:41:10.087Z,17.90
2022-09-15T04:43:36.895Z,17.85
2022-09-15T04:46:03.602Z,17.83
2022-09-15T04:48:31.183Z,17.79
2022-09-15T04:51:01.312Z,17.71
2022-09-15T04:53:28.122Z,17.72
2022-09-15T04:56:05.421Z,17.69
2022-09-15T04:58:36.578Z,17.66
2022-09-15T05:01:08.858Z,17.62
2022-09-15T05:03:37.604Z,17.58
2022-09-15T05:06:06.272Z,17.54
2022-09-15T05:08:32.988Z,17.51
2022-09-15T05:11:04.982Z,17.43
2022-09-15T05:13:31.498Z,17.29
2022-09-15T05:16:06.542Z,17.12
2022-09-15T05:18:33.310Z,17.22
2022-09-15T05:21:01.609Z,17.08
2022-09-15T05:23:28.661Z,17.03
2022-09-15T05:25:59.321Z,17.09
2022-09-15T05:28:26.694Z,17.10
2022-09-15T05:30:54.745Z,16.99
2022-09-15T05:33:22.998Z,17.08
2022-09-15T05:35:53.913Z,17.24
2022-09-15T05:38:20.938Z,17.56
2022-09-15T05:40:48.228Z,17.60
2022-09-15T05:43:15.966Z,17.36
2022-09-15T05:45:42.683Z,17.30
2022-09-15T05:48:13.478Z,17.50
2022-09-15T05:50:48.536Z,17.50
2022-09-15T05:53:15.665Z,17.67
2022-09-15T05:55:42.542Z,18.03
2022-09-15T05:58:09.096Z,18.30
2022-09-15T06:00:36.667Z,18.39
2022-09-15T06:03:04.242Z,18.25
2022-09-15T06:05:32.414Z,18.08
2022-09-15T06:07:58.944Z,17.87
2022-09-15T06:10:25.776Z,17.92
2022-09-15T06:12:56.315Z,17.81
2022-09-15T06:15:23.776Z,17.76
2022-09-15T06:17:50.744Z,17.62
2022-09-15T06:20:18.636Z,17.45
2022-09-15T06:22:45.977Z,17.31
2022-09-15T06:25:13.463Z,17.26
2022-09-15T06:27:40.877Z,17.30
2022-09-15T06:30:10.431Z,17.32
2022-09-15T06:32:37.007Z,17.33
2022-09-15T06:35:08.009Z,17.45
2022-09-15T06:37:34.779Z,17.58
2022-09-15T06:40:02.056Z,17.70
2022-09-15T06:42:28.611Z,17.72
2022-09-15T06:44:55.131Z,17.71
2022-09-15T06:47:21.671Z,17.74
2022-09-15T06:49:48.343Z,17.79
2022-09-15T06:52:14.896Z,17.79
2022-09-15T06:54:41.426Z,17.85
2022-09-15T06:57:08.227Z,17.95
2022-09-15T06:59:34.782Z,17.98
2022-09-15T07:02:05.117Z,18.18
2022-09-15T07:04:32.015Z,18.42
2022-09-15T07:06:58.548Z,18.48
2022-09-15T07:09:25.042Z,18.40
2022-09-15T07:11:51.672Z,18.48
2022-09-15T07:14:18.161Z,18.55
2022-09-15T07:16:45.930Z,18.33
2022-09-15T07:19:12.646Z,18.07
2022-09-15T07:21:39.197Z,17.99
2022-09-15T07:24:07.437Z,17.87
2022-09-15T07:26:34.706Z,17.98
2022-09-15T07:29:05.405Z,18.24
2022-09-15T07:31:33.649Z,18.18
2022-09-15T07:34:01.244Z,17.95
2022-09-15T07:36:28.168Z,17.75
2022-09-15T07:38:54.656Z,17.71
2022-09-15T07:41:24.069Z,17.58
2022-09-15T07:43:52.582Z,17.59
2022-09-15T07:46:20.650Z,17.67
2022-09-15T07:48:49.736Z,17.82
2022-09-15T07:51:17.294Z,17.75
2022-09-15T07:53:46.297Z,17.71
2022-09-15T07:56:13.511Z,17.71
2022-09-15T07:58:40.509Z,17.70
2022-09-15T08:01:11.249Z,17.73
2022-09-15T08:03:43.023Z,18.09
2022-09-15T08:06:10.148Z,18.40
2022-09-15T08:08:41.561Z,18.33
2022-09-15T08:11:12.211Z,18.26
2022-09-15T08:13:41.823Z,18.07
2022-09-15T08:16:11.175Z,17.98
2022-09-15T08:18:38.388Z,18.19
2022-09-15T08:21:11.121Z,18.24
2022-09-15T08:23:38.357Z,18.28
2022-09-15T08:26:13.638Z,18.13
2022-09-15T08:28:41.399Z,17.98
2022-09-15T08:31:11.463Z,17.98
2022-09-15T08:33:43.195Z,17.97
2022-09-15T08:36:12.397Z,18.05
2022-09-15T08:38:46.983Z,18.14
2022-09-15T08:41:22.693Z,18.24
2022-09-15T08:43:52.082Z,18.72
2022-09-15T08:46:24.064Z,19.04
2022-09-15T08:49:09.463Z,19.05
2022-09-15T08:51:47.400Z,18.92
2022-09-15T08:54:19.787Z,18.95
2022-09-15T08:56:47.846Z,18.97
2022-09-15T08:59:16.965Z,19.11
2022-09-15T09:01:57.446Z,19.21
2022-09-15T09:04:39.365Z,19.21
2022-09-15T09:07:18.012Z,19.42
2022-09-15T09:10:00.149Z,19.77
2022-09-15T09:12:29.575Z,20.01
2022-09-15T09:15:07.541Z,20.49
2022-09-15T09:17:58.546Z,20.93
2022-09-15T09:20:34.203Z,21.28
2022-09-15T09:23:04.249Z,21.56
2022-09-15T09:25:31.285Z,21.58
2022-09-15T09:27:58.496Z,21.35
2022-09-15T09:30:27.713Z,21.23
2022-09-15T09:32:54.205Z,21.28
2022-09-15T09:35:43.500Z,21.46
2022-09-15T09:38:11.873Z,21.71
2022-09-15T09:40:41.742Z,21.62
2022-09-15T09:43:09.094Z,21.28
2022-09-15T09:45:35.953Z,21.31
2022-09-15T09:48:12.272Z,21.52
2022-09-15T09:50:44.555Z,21.79
2022-09-15T09:53:21.608Z,22.09
2022-09-15T09:55:48.183Z,22.29
2022-09-15T09:58:23.610Z,22.13
2022-09-15T10:00:51.826Z,22.05
2022-09-15T10:03:27.117Z,21.86
2022-09-15T10:06:19.126Z,21.81
2022-09-15T10:08:58.102Z,21.55
2022-09-15T10:11:43.011Z,21.54
2022-09-15T10:14:36.026Z,21.60
2022-09-15T10:17:13.005Z,21.60
2022-09-15T10:19:54.256Z,21.72
2022-09-15T10:22:36.558Z,21.69
2022-09-15T10:25:19.855Z,21.63
2022-09-15T10:28:14.572Z,21.43
2022-09-15T10:31:10.703Z,21.42
2022-09-15T10:33:42.658Z,21.64
2022-09-15T10:36:13.956Z,21.77
2022-09-15T10:38:54.407Z,21.92
2022-09-15T10:41:26.531Z,21.79
2022-09-15T10:44:14.601Z,21.64
2022-09-15T10:46:53.459Z,21.53
2022-09-15T10:49:41.396Z,21.52
2022-09-15T10:52:27.983Z,21.32
2022-09-15T10:55:10.516Z,21.12
2022-09-15T10:57:55.709Z,21.20
2022-09-15T11:00:28.501Z,21.35
2022-09-15T11:03:31.818Z,21.42
2022-09-15T11:06:14.245Z,21.38
2022-09-15T11:09:08.892Z,21.36
2022-09-15T11:12:10.085Z,21.30
2022-09-15T11:14:39.658Z,21.33
2022-09-15T11:17:18.065Z,21.37
2022-09-15T11:20:06.463Z,21.39
2022-09-15T11:22:49.668Z,21.51
2022-09-15T11:25:23.369Z,21.94
2022-09-15T11:27:58.631Z,22.15
2022-09-15T11:30:32.202Z,22.33
2022-09-15T11:33:05.659Z,22.29
2022-09-15T11:35:54.547Z,22.25
2022-09-15T11:38:40.620Z,22.24
2022-09-15T11:41:15.812Z,22.35
2022-09-15T11:43:57.162Z,22.24
2022-09-15T11:47:08.649Z,21.97
2022-09-15T11:49:51.151Z,21.71
2022-09-15T11:52:42.963Z,21.67
2022-09-15T11:55:24.051Z,21.80
2022-09-15T11:58:05.505Z,21.97
2022-09-15T12:00:35.024Z,22.30
2022-09-15T12:03:26.260Z,22.60
2022-09-15T12:06:07.116Z,22.99
2022-09-15T12:08:57.798Z,23.15
2022-09-15T12:11:26.611Z,23.15
2022-09-15T12:13:54.719Z,23.44
2022-09-15T12:16:22.623Z,23.19
2022-09-15T12:19:02.167Z,22.99
2022-09-15T12:21:35.338Z,22.73
2022-09-15T12:24:13.377Z,22.61
2022-09-15T12:26:43.261Z,22.54
2022-09-15T12:29:22.089Z,22.36
2022-09-15T12:31:48.628Z,22.26
2022-09-15T12:34:38.553Z,22.14
2022-09-15T12:37:14.520Z,22.04
2022-09-15T12:39:46.066Z,22.01
2022-09-15T12:42:24.966Z,21.94
2022-09-15T12:44:56.282Z,21.96
2022-09-15T12:47:34.617Z,21.90
2022-09-15T12:50:27.313Z,21.86
2022-09-15T12:53:14.233Z,21.91
2022-09-15T12:55:56.108Z,21.91
2022-09-15T12:58:42.243Z,21.89
2022-09-15T13:01:26.683Z,21.99
2022-09-15T13:03:57.857Z,22.08
2022-09-15T13:06:27.091Z,22.15
2022-09-15T13:09:03.704Z,22.23
2022-09-15T13:11:39.158Z,22.29
2022-09-15T13:14:08.422Z,22.35
2022-09-15T13:16:48.690Z,22.45
2022-09-15T13:19:33.382Z,22.56
2022-09-15T13:22:16.420Z,22.60
2022-09-15T13:25:02.271Z,22.60
2022-09-15T13:27:43.133Z,22.50
2022-09-15T13:30:40.341Z,22.43
2022-09-15T13:40:27.223Z,22.17
2022-09-15T13:43:03.144Z,22.06
2022-09-15T13:45:48.513Z,21.95
2022-09-15T13:48:31.060Z,21.93
2022-09-15T13:51:01.135Z,21.84
2022-09-15T13:54:06.070Z,21.77
2022-09-15T13:56:38.476Z,21.75
2022-09-15T13:59:13.244Z,21.73
2022-09-15T14:01:42.550Z,21.72
2022-09-15T14:04:13.822Z,21.80
2022-09-15T14:06:45.721Z,21.84
2022-09-15T14:09:20.624Z,21.82
2022-09-15T14:11:50.290Z,21.79
2022-09-15T14:14:38.955Z,21.79
2022-09-15T14:17:06.003Z,21.75
2022-09-15T14:19:36.704Z,21.76
2022-09-15T14:22:20.761Z,21.81
2022-09-15T14:24:47.731Z,21.82
2022-09-15T14:27:22.032Z,21.81
2022-09-15T14:29:54.424Z,21.75
2022-09-15T14:32:21.708Z,21.72
2022-09-15T14:34:48.933Z,21.69
2022-09-15T14:37:23.931Z,21.70
2022-09-15T14:39:56.534Z,21.72
2022-09-15T14:42:33.394Z,21.67
2022-09-15T14:48:01.541Z,21.52
2022-09-15T14:50:32.951Z,21.44
2022-09-15T14:53:20.028Z,21.39
2022-09-15T14:56:00.600Z,21.43
2022-09-15T14:58:33.625Z,21.47
2022-09-15T15:01:09.786Z,21.43
2022-09-15T15:03:58.872Z,21.33
2022-09-15T15:07:01.842Z,21.31
2022-09-15T15:09:37.697Z,21.32
2022-09-15T15:12:13.278Z,21.27
2022-09-15T15:14:42.534Z,21.20
2022-09-15T15:17:26.688Z,21.24
2022-09-15T15:20:22.963Z,21.25
2022-09-15T15:23:25.535Z,21.23
2022-09-15T15:25:53.151Z,21.20
2022-09-15T15:28:35.997Z,21.29
2022-09-15T15:31:21.766Z,21.51
2022-09-15T15:33:51.899Z,21.71
2022-09-15T15:36:26.283Z,22.14
2022-09-15T15:38:59.355Z,22.46
2022-09-15T15:41:27.015Z,22.67
2022-09-15T15:44:08.133Z,22.66
2022-09-15T15:47:02.878Z,22.38
2022-09-15T15:49:32.531Z,22.13
2022-09-15T15:52:00.625Z,21.94
2022-09-15T15:54:28.098Z,22.01
2022-09-15T15:56:55.297Z,21.97
2022-09-15T15:59:21.954Z,21.90
2022-09-15T16:01:55.539Z,21.76
2022-09-15T16:04:22.163Z,21.67
2022-09-15T16:06:48.824Z,21.54
2022-09-15T16:09:17.554Z,21.98
2022-09-15T16:11:44.256Z,22.15
2022-09-15T16:14:12.431Z,21.94
2022-09-15T16:16:39.312Z,21.70
2022-09-15T16:19:05.840Z,21.51
2022-09-15T16:21:37.402Z,21.32
2022-09-15T16:24:12.686Z,21.19
2022-09-15T16:26:39.867Z,21.08
2022-09-15T16:29:06.414Z,21.06
2022-09-15T16:31:33.997Z,20.97
2022-09-15T16:34:01.047Z,20.93
2022-09-15T16:36:27.707Z,20.84
2022-09-15T16:38:54.341Z,20.80
2022-09-15T16:41:23.707Z,20.83
2022-09-15T16:43:50.326Z,20.81
2022-09-15T16:46:17.420Z,20.81
2022-09-15T16:48:47.197Z,20.78
2022-09-15T16:51:25.229Z,20.71
2022-09-15T16:53:55.339Z,20.62
2022-09-15T16:56:21.861Z,20.55
2022-09-15T16:58:48.411Z,20.48
2022-09-15T17:01:20.271Z,20.37
2022-09-15T17:03:47.249Z,20.19
2022-09-15T17:06:15.597Z,20.14
2022-09-15T17:08:42.670Z,20.08
2022-09-15T17:11:17.552Z,20.04
2022-09-15T17:13:44.904Z,19.97
2022-09-15T17:16:13.927Z,19.88
2022-09-15T17:18:40.717Z,19.80
2022-09-15T17:21:09.647Z,19.75
2022-09-15T17:23:38.959Z,19.73
2022-09-15T17:26:14.888Z,19.69
2022-09-15T17:28:42.281Z,19.64
2022-09-15T17:31:15.472Z,19.61
2022-09-15T17:33:42.530Z,19.59
2022-09-15T17:36:09.139Z,19.56
2022-09-15T17:38:35.716Z,19.51
2022-09-15T17:41:02.441Z,19.49
2022-09-15T17:43:30.686Z,19.47
2022-09-15T17:45:58.032Z,19.44
2022-09-15T17:48:24.748Z,19.40
2022-09-15T17:50:52.336Z,19.37
2022-09-15T17:53:21.456Z,19.36
2022-09-15T17:55:48.871Z,19.34
2022-09-15T17:58:15.915Z,19.31
2022-09-15T18:00:43.974Z,19.28
2022-09-15T18:03:27.871Z,19.24
2022-09-15T18:05:56.459Z,19.23
2022-09-15T18:08:23.237Z,19.22
2022-09-15T18:10:50.123Z,19.22
2022-09-15T18:13:19.712Z,19.20
2022-09-15T18:15:46.957Z,19.19
2022-09-15T18:18:16.869Z,19.15
2022-09-15T18:20:44.355Z,19.16
2022-09-15T18:23:16.357Z,19.12
2022-09-15T18:25:43.310Z,19.05
2022-09-15T18:28:10.275Z,19.09
2022-09-15T18:30:41.832Z,19.11
2022-09-15T18:33:14.069Z,19.08
2022-09-15T18:35:41.247Z,19.10
2022-09-15T18:38:08.285Z,19.12
2022-09-15T18:40:35.017Z,19.11
2022-09-15T18:43:01.568Z,19.10
2022-09-15T18:45:28.736Z,19.07
2022-09-15T18:47:55.322Z,19.05
2022-09-15T18:50:24.206Z,19.01
2022-09-15T18:52:50.991Z,18.96
2022-09-15T18:55:20.286Z,18.86
2022-09-15T18:57:47.392Z,18.76
2022-09-15T19:00:22.617Z,18.68
2022-09-15T19:02:49.272Z,18.61
2022-09-15T19:05:16.658Z,18.56
2022-09-15T19:07:46.656Z,18.52
2022-09-15T19:10:14.468Z,18.50
2022-09-15T19:12:41.157Z,18.49
2022-09-15T19:15:11.315Z,18.47
2022-09-15T19:17:39.510Z,18.46
2022-09-15T19:20:08.301Z,18.41
2022-09-15T19:22:35.437Z,18.41
2022-09-15T19:25:02.016Z,18.40
2022-09-15T19:27:29.210Z,18.36
2022-09-15T19:29:55.745Z,18.32
2022-09-15T19:32:22.892Z,18.30
2022-09-15T19:34:49.730Z,18.26
2022-09-15T19:37:19.172Z,18.23
2022-09-15T19:39:47.410Z,18.20
2022-09-15T19:42:17.346Z,18.16
2022-09-15T19:44:44.648Z,18.11
2022-09-15T19:47:11.318Z,18.06
2022-09-15T19:49:37.876Z,17.99
2022-09-15T19:52:06.560Z,17.96
2022-09-15T19:54:34.427Z,17.94
2022-09-15T19:57:04.608Z,17.92
2022-09-15T19:59:32.080Z,17.89
2022-09-15T20:02:00.557Z,17.84
2022-09-15T20:07:12.592Z,17.73
2022-09-15T20:09:39.506Z,17.65
2022-09-15T20:12:06.162Z,17.58
2022-09-15T20:14:32.689Z,17.52
2022-09-15T20:17:01.175Z,17.49
2022-09-15T20:19:28.553Z,17.42
2022-09-15T20:21:55.151Z,17.37
2022-09-15T20:24:22.397Z,17.33
2022-09-15T20:26:49.437Z,17.28
2022-09-15T20:29:16.246Z,17.23
2022-09-15T20:31:43.562Z,17.19
2022-09-15T20:34:10.044Z,17.13
2022-09-15T20:36:38.978Z,17.08
2022-09-15T20:39:11.961Z,17.00
2022-09-15T20:41:39.967Z,16.95
2022-09-15T20:44:09.437Z,16.90
2022-09-15T20:46:36.674Z,16.85
2022-09-15T20:49:03.520Z,16.82
2022-09-15T20:51:31.766Z,16.79
2022-09-15T20:54:00.767Z,16.75
2022-09-15T20:56:29.207Z,16.76
2022-09-15T20:58:58.489Z,16.74
2022-09-15T21:01:28.113Z,16.69
2022-09-15T21:03:55.504Z,16.64
2022-09-15T21:06:24.811Z,16.61
2022-09-15T21:08:52.119Z,16.53
2022-09-15T21:11:20.541Z,16.46
2022-09-15T21:13:49.332Z,16.40
2022-09-15T21:16:22.125Z,16.34
2022-09-15T21:18:49.816Z,16.28
2022-09-15T21:21:20.765Z,16.24
2022-09-15T21:24:08.006Z,16.17
2022-09-15T21:26:56.333Z,16.18
2022-09-15T21:29:23.427Z,16.16
2022-09-15T21:31:50.441Z,16.15
2022-09-15T21:34:17.098Z,16.21
2022-09-15T21:36:43.670Z,16.26
2022-09-15T21:39:10.241Z,16.34
2022-09-15T21:41:36.802Z,16.40
2022-09-15T21:44:03.744Z,16.43
2022-09-15T21:46:31.398Z,16.40
2022-09-15T21:48:59.598Z,16.36
2022-09-15T21:51:28.396Z,16.32
2022-09-15T21:53:56.785Z,16.30
2022-09-15T21:56:24.839Z,16.25
2022-09-15T21:58:51.546Z,16.22
2022-09-15T22:01:27.980Z,16.17
2022-09-15T22:04:08.071Z,16.09
2022-09-15T22:06:37.314Z,16.04
2022-09-15T22:09:50.418Z,15.98
2022-09-15T22:12:17.007Z,15.94
2022-09-15T22:14:43.543Z,15.91
2022-09-15T22:17:10.115Z,15.88
2022-09-15T22:19:36.646Z,15.90
2022-09-15T22:22:03.265Z,15.93
2022-09-15T22:24:30.123Z,15.94
2022-09-15T22:26:56.629Z,15.97
2022-09-15T22:29:23.386Z,16.01
2022-09-15T22:31:50.082Z,16.05
2022-09-15T22:34:16.676Z,16.08
2022-09-15T22:36:43.302Z,16.13
2022-09-15T22:39:12.217Z,16.19
2022-09-15T22:41:39.984Z,16.22
2022-09-15T22:44:07.763Z,16.24
2022-09-15T22:46:34.594Z,16.29
2022-09-15T22:49:01.606Z,16.34
2022-09-15T22:51:28.155Z,16.35
2022-09-15T22:53:57.046Z,16.39
2022-09-15T22:56:25.979Z,16.43
2022-09-15T22:58:52.701Z,16.46
2022-09-15T23:01:21.969Z,16.49
2022-09-15T23:04:06.371Z,16.49
2022-09-15T23:06:34.440Z,16.55
2022-09-15T23:09:04.929Z,16.56
2022-09-15T23:11:33.280Z,16.56
2022-09-15T23:14:00.488Z,16.55
2022-09-15T23:16:27.277Z,16.54
2022-09-15T23:18:54.272Z,16.51
2022-09-15T23:21:21.473Z,16.53
2022-09-15T23:23:49.272Z,16.54
2022-09-15T23:26:20.931Z,16.56
2022-09-15T23:28:49.498Z,16.56
2022-09-15T23:31:17.104Z,16.54
2022-09-15T23:33:43.796Z,16.49
2022-09-15T23:36:13.007Z,16.46
2022-09-15T23:38:41.254Z,16.43
2022-09-15T23:41:08.977Z,16.43
2022-09-15T23:43:35.902Z,16.44
2022-09-15T23:46:03.484Z,16.42
2022-09-15T23:48:31.670Z,16.40
2022-09-15T23:50:58.488Z,16.40
2022-09-15T23:53:25.557Z,16.36
2022-09-15T23:55:52.369Z,16.34
2022-09-15T23:58:18.921Z,16.30
